Airfield :
LOGIN :

Register | Disclaimer

   EN    FR    IT 

 










Legend :    VFR   Marginal VFR   IFR   Intensive IFR   Very Intensive IFR
Visi :
Ceiling :
>= 8 km
>= 3000ft
5 to 8 km
1000 to 3000 ft
1500m to 5 km
500 to 1000 ft
800 to 1500m
200 to 500 ft
< 800m
< 200 ft
Symbols :   Thunderstorms  Fog  Heavy snow  Heavy precipitations  Wind > 20 kt
SIGMETs :     Misc.  Thunderstorms  Icing  Turbulence  Mountain Waves  Volcanic Ashes







- Airport Elevation : 1568 ft


ETSB - Büchel AB

CURRENT METAR :
  • 201220Z 25009KT 9999 SCT010 BKN120 07/03 Q1023 BLU BLU

EXPIRED METARs :
  • 201120Z 25008KT 8000 FEW002 BKN140 05/05 Q1024 BLU BLU
  • 201102Z 25007KT 5000 BR FEW001 SCT002 BKN140 04/04 Q1023 WHT WHT BECMG BLU
  • 201048Z 25007KT 2000 BR SCT001 BKN002 BKN140 03/03 Q1024 AMB AMB BECMG YLO
  • 201041Z 25007KT 1600 R21/0650U BR SCT000 BKN001 03/03 Q1024 RED RED BECMG AMB
  • 201036Z 25007KT 1200 R21/0450N BR BKN000 03/03 Q1024 RED RED BECMG AMB
  • 201020Z 25007KT 0300 R21/0450N FG BKN000 03/02 Q1023 RED RED BECMG AMB
  • 201033Z 25008KT 0600 R21/0450N FG BKN000 03/02 Q1024 RED RED BECMG AMB

TAF TAF ETSB
Valid from the 20 at 12:00 until the 20 at 21:00 UTC


201108Z 2012/2021 25007KT 5000 BR SCT003 BKN140
BECMG 2012/2014 24008KT 9999 NSW BKN140 BY ETGL
No reported NOTAMs for that airfield.



MET'MAP, your aeronautical weather chart ! - Copyright ORBIFLY December 2007 - Disclaimer

ORBIFLY MET'MAP TEAM :

Programming & Development : Alexandra Zaïnal
Concept & Development : Baudouin d'Aumeries
Co-Development & Prog : Marc-Olivier Méhu
Technical & hardware support : Manuel Goepfert

Contact : metmap@orbifly.com




SOURCES & CREDITS :

   NOAA